sensor_id;sensor_type;location;lat;lon;timestamp;temperature;humidity
51996;DHT22;38010;53.264;6.592;2023-05-14T00:00:22;18.10;99.90
51996;DHT22;38010;53.264;6.592;2023-05-14T00:02:48;18.10;99.90
51996;DHT22;38010;53.264;6.592;2023-05-14T00:05:13;18.00;99.90
51996;DHT22;38010;53.264;6.592;2023-05-14T00:07:39;18.00;99.90
51996;DHT22;38010;53.264;6.592;2023-05-14T00:10:05;18.10;99.90
51996;DHT22;38010;53.264;6.592;2023-05-14T00:12:31;18.00;99.90
51996;DHT22;38010;53.264;6.592;2023-05-14T00:14:57;18.00;99.90
51996;DHT22;38010;53.264;6.592;2023-05-14T00:17:23;18.00;99.90
51996;DHT22;38010;53.264;6.592;2023-05-14T00:19:48;18.00;99.90
51996;DHT22;38010;53.264;6.592;2023-05-14T00:22:14;18.00;99.90
51996;DHT22;38010;53.264;6.592;2023-05-14T00:24:40;18.00;99.90
51996;DHT22;38010;53.264;6.592;2023-05-14T00:27:05;18.00;99.90
51996;DHT22;38010;53.264;6.592;2023-05-14T00:29:31;18.00;99.90
51996;DHT22;38010;53.264;6.592;2023-05-14T00:31:57;18.00;99.90
51996;DHT22;38010;53.264;6.592;2023-05-14T00:34:23;18.00;99.90
51996;DHT22;38010;53.264;6.592;2023-05-14T00:36:50;18.00;99.90
51996;DHT22;38010;53.264;6.592;2023-05-14T00:39:15;18.00;99.90
51996;DHT22;38010;53.264;6.592;2023-05-14T00:41:41;18.00;99.90
51996;DHT22;38010;53.264;6.592;2023-05-14T00:44:07;18.00;99.90
51996;DHT22;38010;53.264;6.592;2023-05-14T00:46:32;18.00;99.90
51996;DHT22;38010;53.264;6.592;2023-05-14T00:48:58;18.00;99.90
51996;DHT22;38010;53.264;6.592;2023-05-14T00:51:24;18.00;99.90
51996;DHT22;38010;53.264;6.592;2023-05-14T00:53:51;18.00;99.90
51996;DHT22;38010;53.264;6.592;2023-05-14T00:56:18;18.00;99.90
51996;DHT22;38010;53.264;6.592;2023-05-14T00:58:44;18.00;99.90
51996;DHT22;38010;53.264;6.592;2023-05-14T01:01:09;18.00;99.90
51996;DHT22;38010;53.264;6.592;2023-05-14T01:03:36;17.90;99.90
51996;DHT22;38010;53.264;6.592;2023-05-14T01:11:33;17.90;99.90
51996;DHT22;38010;53.264;6.592;2023-05-14T01:16:39;17.90;99.90
51996;DHT22;38010;53.264;6.592;2023-05-14T01:21:47;17.90;99.90
51996;DHT22;38010;53.264;6.592;2023-05-14T01:24:13;17.90;99.90
51996;DHT22;38010;53.264;6.592;2023-05-14T01:26:39;17.90;99.90
51996;DHT22;38010;53.264;6.592;2023-05-14T01:29:28;17.90;99.90
51996;DHT22;38010;53.264;6.592;2023-05-14T01:31:54;17.80;99.90
51996;DHT22;38010;53.264;6.592;2023-05-14T01:34:23;17.80;99.90
51996;DHT22;38010;53.264;6.592;2023-05-14T01:36:50;17.90;99.90
51996;DHT22;38010;53.264;6.592;2023-05-14T01:39:17;17.80;99.90
51996;DHT22;38010;53.264;6.592;2023-05-14T01:41:44;17.80;99.90
51996;DHT22;38010;53.264;6.592;2023-05-14T01:44:11;17.80;99.90
51996;DHT22;38010;53.264;6.592;2023-05-14T01:46:37;17.80;99.90
51996;DHT22;38010;53.264;6.592;2023-05-14T01:49:03;17.80;99.90
51996;DHT22;38010;53.264;6.592;2023-05-14T01:51:28;17.80;99.90
51996;DHT22;38010;53.264;6.592;2023-05-14T01:53:54;17.80;99.90
51996;DHT22;38010;53.264;6.592;2023-05-14T01:56:22;17.80;99.90
51996;DHT22;38010;53.264;6.592;2023-05-14T01:58:48;17.80;99.90
51996;DHT22;38010;53.264;6.592;2023-05-14T02:01:14;17.80;99.90
51996;DHT22;38010;53.264;6.592;2023-05-14T02:03:40;17.80;99.90
51996;DHT22;38010;53.264;6.592;2023-05-14T02:06:05;17.80;99.90
51996;DHT22;38010;53.264;6.592;2023-05-14T02:08:31;17.80;99.90
51996;DHT22;38010;53.264;6.592;2023-05-14T02:10:57;17.80;99.90
51996;DHT22;38010;53.264;6.592;2023-05-14T02:13:24;17.80;99.90
51996;DHT22;38010;53.264;6.592;2023-05-14T02:15:50;17.80;99.90
51996;DHT22;38010;53.264;6.592;2023-05-14T02:18:16;17.70;99.90
51996;DHT22;38010;53.264;6.592;2023-05-14T02:20:41;17.80;99.90
51996;DHT22;38010;53.264;6.592;2023-05-14T02:23:07;17.80;99.90
51996;DHT22;38010;53.264;6.592;2023-05-14T02:25:33;17.70;99.90
51996;DHT22;38010;53.264;6.592;2023-05-14T02:27:58;17.70;99.90
51996;DHT22;38010;53.264;6.592;2023-05-14T02:30:24;17.70;99.90
51996;DHT22;38010;53.264;6.592;2023-05-14T02:32:50;17.70;99.90
51996;DHT22;38010;53.264;6.592;2023-05-14T02:35:15;17.80;99.90
51996;DHT22;38010;53.264;6.592;2023-05-14T02:37:41;17.70;99.90
51996;DHT22;38010;53.264;6.592;2023-05-14T02:40:07;17.80;99.90
51996;DHT22;38010;53.264;6.592;2023-05-14T02:42:33;17.70;99.90
51996;DHT22;38010;53.264;6.592;2023-05-14T02:44:59;17.70;99.90
51996;DHT22;38010;53.264;6.592;2023-05-14T02:47:25;17.80;99.90
51996;DHT22;38010;53.264;6.592;2023-05-14T02:49:51;17.70;99.90
51996;DHT22;38010;53.264;6.592;2023-05-14T02:52:16;17.70;99.90
51996;DHT22;38010;53.264;6.592;2023-05-14T02:54:42;17.70;99.90
51996;DHT22;38010;53.264;6.592;2023-05-14T02:57:08;17.70;99.90
51996;DHT22;38010;53.264;6.592;2023-05-14T02:59:33;17.70;99.90
51996;DHT22;38010;53.264;6.592;2023-05-14T03:01:59;17.70;99.90
51996;DHT22;38010;53.264;6.592;2023-05-14T03:04:25;17.70;99.90
51996;DHT22;38010;53.264;6.592;2023-05-14T03:06:50;17.70;99.90
51996;DHT22;38010;53.264;6.592;2023-05-14T03:09:16;17.70;99.90
51996;DHT22;38010;53.264;6.592;2023-05-14T03:11:42;17.70;99.90
51996;DHT22;38010;53.264;6.592;2023-05-14T03:14:07;17.70;99.90
51996;DHT22;38010;53.264;6.592;2023-05-14T03:16:33;17.60;99.90
51996;DHT22;38010;53.264;6.592;2023-05-14T03:18:59;17.60;99.90
51996;DHT22;38010;53.264;6.592;2023-05-14T03:21:25;17.60;99.90
51996;DHT22;38010;53.264;6.592;2023-05-14T03:23:51;17.60;99.90
51996;DHT22;38010;53.264;6.592;2023-05-14T03:26:17;17.60;99.90
51996;DHT22;38010;53.264;6.592;2023-05-14T03:28:43;17.60;99.90
51996;DHT22;38010;53.264;6.592;2023-05-14T03:31:09;17.60;99.90
51996;DHT22;38010;53.264;6.592;2023-05-14T03:33:34;17.60;99.90
51996;DHT22;38010;53.264;6.592;2023-05-14T03:36:00;17.60;99.90
51996;DHT22;38010;53.264;6.592;2023-05-14T03:38:26;17.60;99.90
51996;DHT22;38010;53.264;6.592;2023-05-14T03:40:52;17.60;99.90
51996;DHT22;38010;53.264;6.592;2023-05-14T03:43:17;17.60;99.90
51996;DHT22;38010;53.264;6.592;2023-05-14T03:45:43;17.60;99.90
51996;DHT22;38010;53.264;6.592;2023-05-14T03:48:09;17.60;99.90
51996;DHT22;38010;53.264;6.592;2023-05-14T03:50:35;17.60;99.90
51996;DHT22;38010;53.264;6.592;2023-05-14T03:53:00;17.60;99.90
51996;DHT22;38010;53.264;6.592;2023-05-14T03:55:26;17.60;99.90
51996;DHT22;38010;53.264;6.592;2023-05-14T03:57:52;17.60;99.90
51996;DHT22;38010;53.264;6.592;2023-05-14T04:00:18;17.50;99.90
51996;DHT22;38010;53.264;6.592;2023-05-14T04:02:43;17.50;99.90
51996;DHT22;38010;53.264;6.592;2023-05-14T04:05:09;17.50;99.90
51996;DHT22;38010;53.264;6.592;2023-05-14T04:07:35;17.50;99.90
51996;DHT22;38010;53.264;6.592;2023-05-14T04:10:02;17.50;99.90
51996;DHT22;38010;53.264;6.592;2023-05-14T04:12:28;17.50;99.90
51996;DHT22;38010;53.264;6.592;2023-05-14T04:14:53;17.50;99.90
51996;DHT22;38010;53.264;6.592;2023-05-14T04:17:19;17.50;99.90
51996;DHT22;38010;53.264;6.592;2023-05-14T04:19:45;17.50;99.90
51996;DHT22;38010;53.264;6.592;2023-05-14T04:22:10;17.50;99.90
51996;DHT22;38010;53.264;6.592;2023-05-14T04:24:36;17.50;99.90
51996;DHT22;38010;53.264;6.592;2023-05-14T04:27:02;17.50;99.90
51996;DHT22;38010;53.264;6.592;2023-05-14T04:29:28;17.50;99.90
51996;DHT22;38010;53.264;6.592;2023-05-14T04:31:54;17.50;99.90
51996;DHT22;38010;53.264;6.592;2023-05-14T04:34:20;17.50;99.90
51996;DHT22;38010;53.264;6.592;2023-05-14T04:36:45;17.50;99.90
51996;DHT22;38010;53.264;6.592;2023-05-14T04:39:11;17.50;99.90
51996;DHT22;38010;53.264;6.592;2023-05-14T04:41:37;17.50;99.90
51996;DHT22;38010;53.264;6.592;2023-05-14T04:44:03;17.50;99.90
51996;DHT22;38010;53.264;6.592;2023-05-14T04:46:29;17.50;99.90
51996;DHT22;38010;53.264;6.592;2023-05-14T04:48:55;17.50;99.90
51996;DHT22;38010;53.264;6.592;2023-05-14T04:51:22;17.50;99.90
51996;DHT22;38010;53.264;6.592;2023-05-14T04:53:47;17.50;99.90
51996;DHT22;38010;53.264;6.592;2023-05-14T04:56:13;17.50;99.90
51996;DHT22;38010;53.264;6.592;2023-05-14T04:58:39;17.50;99.90
51996;DHT22;38010;53.264;6.592;2023-05-14T05:01:04;17.50;99.90
51996;DHT22;38010;53.264;6.592;2023-05-14T05:03:30;17.50;99.90
51996;DHT22;38010;53.264;6.592;2023-05-14T05:05:56;17.50;99.90
51996;DHT22;38010;53.264;6.592;2023-05-14T05:08:22;17.50;99.90
51996;DHT22;38010;53.264;6.592;2023-05-14T05:10:48;17.50;99.90
51996;DHT22;38010;53.264;6.592;2023-05-14T05:13:14;17.50;99.90
51996;DHT22;38010;53.264;6.592;2023-05-14T05:15:42;17.50;99.90
51996;DHT22;38010;53.264;6.592;2023-05-14T05:18:07;17.50;99.90
51996;DHT22;38010;53.264;6.592;2023-05-14T05:20:33;17.50;99.90
51996;DHT22;38010;53.264;6.592;2023-05-14T05:22:59;17.50;99.90
51996;DHT22;38010;53.264;6.592;2023-05-14T05:25:24;17.60;99.90
51996;DHT22;38010;53.264;6.592;2023-05-14T05:27:50;17.50;99.90
51996;DHT22;38010;53.264;6.592;2023-05-14T05:30:16;17.50;99.90
51996;DHT22;38010;53.264;6.592;2023-05-14T05:32:41;17.50;99.90
51996;DHT22;38010;53.264;6.592;2023-05-14T05:35:08;17.60;99.90
51996;DHT22;38010;53.264;6.592;2023-05-14T05:37:33;17.50;99.90
51996;DHT22;38010;53.264;6.592;2023-05-14T05:39:59;17.50;99.90
51996;DHT22;38010;53.264;6.592;2023-05-14T05:42:25;17.60;99.90
51996;DHT22;38010;53.264;6.592;2023-05-14T05:44:50;17.50;99.90
51996;DHT22;38010;53.264;6.592;2023-05-14T05:47:16;17.60;99.90
51996;DHT22;38010;53.264;6.592;2023-05-14T05:49:42;17.60;99.90
51996;DHT22;38010;53.264;6.592;2023-05-14T05:52:07;17.60;99.90
51996;DHT22;38010;53.264;6.592;2023-05-14T05:54:33;17.50;99.90
51996;DHT22;38010;53.264;6.592;2023-05-14T05:56:59;17.50;99.90
51996;DHT22;38010;53.264;6.592;2023-05-14T05:59:25;17.60;99.90
51996;DHT22;38010;53.264;6.592;2023-05-14T06:01:51;17.60;99.90
51996;DHT22;38010;53.264;6.592;2023-05-14T06:04:17;17.50;99.90
51996;DHT22;38010;53.264;6.592;2023-05-14T06:06:43;17.60;99.90
51996;DHT22;38010;53.264;6.592;2023-05-14T06:09:08;17.60;99.90
51996;DHT22;38010;53.264;6.592;2023-05-14T06:11:34;17.60;99.90
51996;DHT22;38010;53.264;6.592;2023-05-14T06:14:00;17.60;99.90
51996;DHT22;38010;53.264;6.592;2023-05-14T06:16:27;17.60;99.90
51996;DHT22;38010;53.264;6.592;2023-05-14T06:18:53;17.60;99.90
51996;DHT22;38010;53.264;6.592;2023-05-14T06:21:19;17.70;99.90
51996;DHT22;38010;53.264;6.592;2023-05-14T06:23:46;17.70;99.90
51996;DHT22;38010;53.264;6.592;2023-05-14T06:26:11;17.70;99.90
51996;DHT22;38010;53.264;6.592;2023-05-14T06:28:37;17.70;99.90
51996;DHT22;38010;53.264;6.592;2023-05-14T06:31:03;17.70;99.90
51996;DHT22;38010;53.264;6.592;2023-05-14T06:33:29;17.70;99.90
51996;DHT22;38010;53.264;6.592;2023-05-14T06:36:04;17.70;99.90
51996;DHT22;38010;53.264;6.592;2023-05-14T06:38:30;17.70;99.90
51996;DHT22;38010;53.264;6.592;2023-05-14T06:40:55;17.70;99.90
51996;DHT22;38010;53.264;6.592;2023-05-14T06:43:21;17.70;99.90
51996;DHT22;38010;53.264;6.592;2023-05-14T06:45:48;17.70;99.90
51996;DHT22;38010;53.264;6.592;2023-05-14T06:48:14;17.80;99.90
51996;DHT22;38010;53.264;6.592;2023-05-14T06:50:40;17.80;99.90
51996;DHT22;38010;53.264;6.592;2023-05-14T06:53:05;17.80;99.90
51996;DHT22;38010;53.264;6.592;2023-05-14T06:55:31;17.80;99.90
51996;DHT22;38010;53.264;6.592;2023-05-14T06:57:57;17.90;99.90
51996;DHT22;38010;53.264;6.592;2023-05-14T07:00:23;17.90;99.90
51996;DHT22;38010;53.264;6.592;2023-05-14T07:02:48;17.90;99.90
51996;DHT22;38010;53.264;6.592;2023-05-14T07:05:14;17.90;99.90
51996;DHT22;38010;53.264;6.592;2023-05-14T07:07:40;18.00;99.90
51996;DHT22;38010;53.264;6.592;2023-05-14T07:10:06;17.90;99.90
51996;DHT22;38010;53.264;6.592;2023-05-14T07:12:32;18.00;99.90
51996;DHT22;38010;53.264;6.592;2023-05-14T07:14:58;17.90;99.90
51996;DHT22;38010;53.264;6.592;2023-05-14T07:17:24;17.90;99.90
51996;DHT22;38010;53.264;6.592;2023-05-14T07:19:50;17.90;99.90
51996;DHT22;38010;53.264;6.592;2023-05-14T07:22:15;17.90;99.90
51996;DHT22;38010;53.264;6.592;2023-05-14T07:24:41;17.90;99.90
51996;DHT22;38010;53.264;6.592;2023-05-14T07:27:07;17.90;99.90
51996;DHT22;38010;53.264;6.592;2023-05-14T07:29:33;17.90;99.90
51996;DHT22;38010;53.264;6.592;2023-05-14T07:32:00;17.90;99.90
51996;DHT22;38010;53.264;6.592;2023-05-14T07:34:26;17.90;99.90
51996;DHT22;38010;53.264;6.592;2023-05-14T07:36:52;17.90;99.90
51996;DHT22;38010;53.264;6.592;2023-05-14T07:39:17;17.90;99.90
51996;DHT22;38010;53.264;6.592;2023-05-14T07:41:43;17.90;99.90
51996;DHT22;38010;53.264;6.592;2023-05-14T07:44:09;17.90;99.90
51996;DHT22;38010;53.264;6.592;2023-05-14T07:46:35;17.90;99.90
51996;DHT22;38010;53.264;6.592;2023-05-14T07:49:01;17.90;99.90
51996;DHT22;38010;53.264;6.592;2023-05-14T07:51:27;17.90;99.90
51996;DHT22;38010;53.264;6.592;2023-05-14T07:53:53;17.90;99.90
51996;DHT22;38010;53.264;6.592;2023-05-14T07:56:21;17.90;99.90
51996;DHT22;38010;53.264;6.592;2023-05-14T07:58:47;17.90;99.90
51996;DHT22;38010;53.264;6.592;2023-05-14T08:01:12;17.90;99.90
51996;DHT22;38010;53.264;6.592;2023-05-14T08:03:38;17.90;99.90
51996;DHT22;38010;53.264;6.592;2023-05-14T08:06:04;17.90;99.90
51996;DHT22;38010;53.264;6.592;2023-05-14T08:08:30;17.90;99.90
51996;DHT22;38010;53.264;6.592;2023-05-14T08:10:56;17.90;99.90
51996;DHT22;38010;53.264;6.592;2023-05-14T08:13:22;17.90;99.90
51996;DHT22;38010;53.264;6.592;2023-05-14T08:15:48;17.90;99.90
51996;DHT22;38010;53.264;6.592;2023-05-14T08:18:13;17.90;99.90
51996;DHT22;38010;53.264;6.592;2023-05-14T08:20:39;17.90;99.90
51996;DHT22;38010;53.264;6.592;2023-05-14T08:23:05;17.90;99.90
51996;DHT22;38010;53.264;6.592;2023-05-14T08:25:32;17.90;99.90
51996;DHT22;38010;53.264;6.592;2023-05-14T08:27:58;18.00;99.90
51996;DHT22;38010;53.264;6.592;2023-05-14T08:30:24;18.00;99.90
51996;DHT22;38010;53.264;6.592;2023-05-14T08:32:50;18.00;99.90
51996;DHT22;38010;53.264;6.592;2023-05-14T08:35:19;18.00;99.90
51996;DHT22;38010;53.264;6.592;2023-05-14T08:37:45;18.00;99.90
51996;DHT22;38010;53.264;6.592;2023-05-14T08:40:11;18.00;99.90
51996;DHT22;38010;53.264;6.592;2023-05-14T08:42:38;18.00;99.90
51996;DHT22;38010;53.264;6.592;2023-05-14T08:45:21;18.00;99.90
51996;DHT22;38010;53.264;6.592;2023-05-14T08:47:50;18.00;99.90
51996;DHT22;38010;53.264;6.592;2023-05-14T08:50:17;18.00;99.90
51996;DHT22;38010;53.264;6.592;2023-05-14T08:52:43;18.00;99.90
51996;DHT22;38010;53.264;6.592;2023-05-14T08:55:11;18.00;99.90
51996;DHT22;38010;53.264;6.592;2023-05-14T08:57:37;18.00;99.90
51996;DHT22;38010;53.264;6.592;2023-05-14T09:00:04;18.00;99.90
51996;DHT22;38010;53.264;6.592;2023-05-14T09:02:33;18.00;99.90
51996;DHT22;38010;53.264;6.592;2023-05-14T09:05:01;18.00;99.90
51996;DHT22;38010;53.264;6.592;2023-05-14T09:07:27;18.00;99.90
51996;DHT22;38010;53.264;6.592;2023-05-14T09:09:53;18.00;99.90
51996;DHT22;38010;53.264;6.592;2023-05-14T09:12:20;18.00;99.90
51996;DHT22;38010;53.264;6.592;2023-05-14T09:14:47;18.00;99.90
51996;DHT22;38010;53.264;6.592;2023-05-14T09:17:13;17.90;99.90
51996;DHT22;38010;53.264;6.592;2023-05-14T09:19:43;18.00;99.90
51996;DHT22;38010;53.264;6.592;2023-05-14T09:22:14;18.00;99.90
51996;DHT22;38010;53.264;6.592;2023-05-14T09:24:41;18.00;99.90
51996;DHT22;38010;53.264;6.592;2023-05-14T09:27:08;18.00;99.90
51996;DHT22;38010;53.264;6.592;2023-05-14T09:29:34;18.00;99.90
51996;DHT22;38010;53.264;6.592;2023-05-14T09:32:00;17.90;99.90
51996;DHT22;38010;53.264;6.592;2023-05-14T09:34:33;18.00;99.90
51996;DHT22;38010;53.264;6.592;2023-05-14T09:37:04;17.90;99.90
51996;DHT22;38010;53.264;6.592;2023-05-14T09:39:31;18.00;99.90
51996;DHT22;38010;53.264;6.592;2023-05-14T09:41:57;17.90;99.90
51996;DHT22;38010;53.264;6.592;2023-05-14T09:44:24;17.90;99.90
51996;DHT22;38010;53.264;6.592;2023-05-14T09:46:51;17.90;99.90
51996;DHT22;38010;53.264;6.592;2023-05-14T09:49:17;17.90;99.90
51996;DHT22;38010;53.264;6.592;2023-05-14T09:51:43;18.00;99.90
51996;DHT22;38010;53.264;6.592;2023-05-14T09:54:09;17.90;99.90
51996;DHT22;38010;53.264;6.592;2023-05-14T09:56:36;18.00;99.90
51996;DHT22;38010;53.264;6.592;2023-05-14T09:59:02;17.90;99.90
51996;DHT22;38010;53.264;6.592;2023-05-14T10:01:29;17.90;99.90
51996;DHT22;38010;53.264;6.592;2023-05-14T10:03:56;17.90;99.90
51996;DHT22;38010;53.264;6.592;2023-05-14T10:06:24;18.00;99.90
51996;DHT22;38010;53.264;6.592;2023-05-14T10:08:55;18.00;99.90
51996;DHT22;38010;53.264;6.592;2023-05-14T10:11:24;18.00;99.90
51996;DHT22;38010;53.264;6.592;2023-05-14T10:14:19;18.00;99.90
51996;DHT22;38010;53.264;6.592;2023-05-14T10:16:52;18.00;99.90
51996;DHT22;38010;53.264;6.592;2023-05-14T10:19:19;18.00;99.90
51996;DHT22;38010;53.264;6.592;2023-05-14T10:21:47;18.00;99.90
51996;DHT22;38010;53.264;6.592;2023-05-14T10:24:14;18.00;99.90
51996;DHT22;38010;53.264;6.592;2023-05-14T10:26:40;18.00;99.90
51996;DHT22;38010;53.264;6.592;2023-05-14T10:29:08;18.00;99.90
51996;DHT22;38010;53.264;6.592;2023-05-14T10:31:51;18.00;99.90
51996;DHT22;38010;53.264;6.592;2023-05-14T10:34:50;18.00;99.90
51996;DHT22;38010;53.264;6.592;2023-05-14T10:37:18;18.00;99.90
51996;DHT22;38010;53.264;6.592;2023-05-14T10:39:48;18.00;99.90
51996;DHT22;38010;53.264;6.592;2023-05-14T10:42:25;18.00;99.90
51996;DHT22;38010;53.264;6.592;2023-05-14T10:44:55;18.00;99.90
51996;DHT22;38010;53.264;6.592;2023-05-14T10:47:24;18.00;99.90
51996;DHT22;38010;53.264;6.592;2023-05-14T10:49:53;18.10;99.90
51996;DHT22;38010;53.264;6.592;2023-05-14T10:52:20;18.10;99.90
51996;DHT22;38010;53.264;6.592;2023-05-14T10:54:57;18.10;99.90
51996;DHT22;38010;53.264;6.592;2023-05-14T10:57:24;18.10;99.90
51996;DHT22;38010;53.264;6.592;2023-05-14T10:59:56;18.10;99.90
51996;DHT22;38010;53.264;6.592;2023-05-14T11:02:36;18.10;99.90
51996;DHT22;38010;53.264;6.592;2023-05-14T11:07:33;18.10;99.90
51996;DHT22;38010;53.264;6.592;2023-05-14T11:12:34;18.10;99.90
51996;DHT22;38010;53.264;6.592;2023-05-14T11:15:02;18.10;99.90
51996;DHT22;38010;53.264;6.592;2023-05-14T11:17:29;18.10;99.90
51996;DHT22;38010;53.264;6.592;2023-05-14T11:19:56;18.10;99.90
51996;DHT22;38010;53.264;6.592;2023-05-14T11:22:22;18.20;99.90
51996;DHT22;38010;53.264;6.592;2023-05-14T11:24:48;18.20;99.90
51996;DHT22;38010;53.264;6.592;2023-05-14T11:27:16;18.20;99.90
51996;DHT22;38010;53.264;6.592;2023-05-14T11:29:46;18.20;99.90
51996;DHT22;38010;53.264;6.592;2023-05-14T11:32:13;18.20;99.90
51996;DHT22;38010;53.264;6.592;2023-05-14T11:34:40;18.20;99.90
51996;DHT22;38010;53.264;6.592;2023-05-14T11:37:07;18.20;99.90
51996;DHT22;38010;53.264;6.592;2023-05-14T11:39:34;18.20;99.90
51996;DHT22;38010;53.264;6.592;2023-05-14T11:42:03;18.20;99.90
51996;DHT22;38010;53.264;6.592;2023-05-14T11:44:30;18.20;99.90
51996;DHT22;38010;53.264;6.592;2023-05-14T11:46:57;18.20;99.90
51996;DHT22;38010;53.264;6.592;2023-05-14T11:49:23;18.20;99.90
51996;DHT22;38010;53.264;6.592;2023-05-14T11:51:55;18.20;99.90
51996;DHT22;38010;53.264;6.592;2023-05-14T11:54:21;18.30;99.90
51996;DHT22;38010;53.264;6.592;2023-05-14T11:56:50;18.20;99.90
51996;DHT22;38010;53.264;6.592;2023-05-14T11:59:16;18.30;99.90
51996;DHT22;38010;53.264;6.592;2023-05-14T12:01:44;18.30;99.90
51996;DHT22;38010;53.264;6.592;2023-05-14T12:04:14;18.30;99.90
51996;DHT22;38010;53.264;6.592;2023-05-14T12:06:43;18.30;99.90
51996;DHT22;38010;53.264;6.592;2023-05-14T12:09:11;18.30;99.90
51996;DHT22;38010;53.264;6.592;2023-05-14T12:11:37;18.30;99.90
51996;DHT22;38010;53.264;6.592;2023-05-14T12:14:19;18.40;99.90
51996;DHT22;38010;53.264;6.592;2023-05-14T12:16:45;18.30;99.90
51996;DHT22;38010;53.264;6.592;2023-05-14T12:19:13;18.40;99.90
51996;DHT22;38010;53.264;6.592;2023-05-14T12:21:42;18.40;99.90
51996;DHT22;38010;53.264;6.592;2023-05-14T12:24:12;18.40;99.90
51996;DHT22;38010;53.264;6.592;2023-05-14T12:26:39;18.40;99.90
51996;DHT22;38010;53.264;6.592;2023-05-14T12:29:12;18.50;99.90
51996;DHT22;38010;53.264;6.592;2023-05-14T12:31:47;18.50;99.90
51996;DHT22;38010;53.264;6.592;2023-05-14T12:34:14;18.50;99.90
51996;DHT22;38010;53.264;6.592;2023-05-14T12:36:40;18.50;99.90
51996;DHT22;38010;53.264;6.592;2023-05-14T12:39:06;18.50;99.90
51996;DHT22;38010;53.264;6.592;2023-05-14T12:41:32;18.50;99.90
51996;DHT22;38010;53.264;6.592;2023-05-14T12:43:59;18.60;99.90
51996;DHT22;38010;53.264;6.592;2023-05-14T12:46:26;18.60;99.90
51996;DHT22;38010;53.264;6.592;2023-05-14T12:48:54;18.60;99.90
51996;DHT22;38010;53.264;6.592;2023-05-14T12:51:21;18.60;99.90
51996;DHT22;38010;53.264;6.592;2023-05-14T12:53:47;18.60;99.90
51996;DHT22;38010;53.264;6.592;2023-05-14T12:56:12;18.60;99.90
51996;DHT22;38010;53.264;6.592;2023-05-14T12:58:38;18.70;99.90
51996;DHT22;38010;53.264;6.592;2023-05-14T13:01:04;18.70;99.90
51996;DHT22;38010;53.264;6.592;2023-05-14T13:03:30;18.70;99.90
51996;DHT22;38010;53.264;6.592;2023-05-14T13:05:56;18.70;99.90
51996;DHT22;38010;53.264;6.592;2023-05-14T13:08:22;18.70;99.90
51996;DHT22;38010;53.264;6.592;2023-05-14T13:10:51;18.70;99.90
51996;DHT22;38010;53.264;6.592;2023-05-14T13:13:17;18.70;99.90
51996;DHT22;38010;53.264;6.592;2023-05-14T13:15:43;18.80;99.90
51996;DHT22;38010;53.264;6.592;2023-05-14T13:18:12;18.80;99.90
51996;DHT22;38010;53.264;6.592;2023-05-14T13:20:37;18.80;99.90
51996;DHT22;38010;53.264;6.592;2023-05-14T13:23:03;18.90;99.90
51996;DHT22;38010;53.264;6.592;2023-05-14T13:25:29;18.90;99.90
51996;DHT22;38010;53.264;6.592;2023-05-14T13:27:55;18.90;99.90
51996;DHT22;38010;53.264;6.592;2023-05-14T13:30:20;18.90;99.90
51996;DHT22;38010;53.264;6.592;2023-05-14T13:32:46;19.00;99.90
51996;DHT22;38010;53.264;6.592;2023-05-14T13:35:12;19.00;99.90
51996;DHT22;38010;53.264;6.592;2023-05-14T13:37:38;19.00;99.90
51996;DHT22;38010;53.264;6.592;2023-05-14T13:40:04;19.00;99.90
51996;DHT22;38010;53.264;6.592;2023-05-14T13:42:37;19.10;99.90
51996;DHT22;38010;53.264;6.592;2023-05-14T13:45:04;19.10;99.90
51996;DHT22;38010;53.264;6.592;2023-05-14T13:47:30;19.10;99.90
51996;DHT22;38010;53.264;6.592;2023-05-14T13:49:57;19.10;99.90
51996;DHT22;38010;53.264;6.592;2023-05-14T13:52:23;19.10;99.90
51996;DHT22;38010;53.264;6.592;2023-05-14T13:54:48;19.20;99.90
51996;DHT22;38010;53.264;6.592;2023-05-14T13:57:14;19.30;99.90
51996;DHT22;38010;53.264;6.592;2023-05-14T13:59:40;19.50;99.90
51996;DHT22;38010;53.264;6.592;2023-05-14T14:02:07;20.00;99.90
51996;DHT22;38010;53.264;6.592;2023-05-14T14:04:32;20.40;99.90
51996;DHT22;38010;53.264;6.592;2023-05-14T14:06:58;20.90;99.90
51996;DHT22;38010;53.264;6.592;2023-05-14T14:09:24;21.40;99.90
51996;DHT22;38010;53.264;6.592;2023-05-14T14:11:50;21.70;99.90
51996;DHT22;38010;53.264;6.592;2023-05-14T14:14:16;22.00;99.90
51996;DHT22;38010;53.264;6.592;2023-05-14T14:16:42;22.10;99.90
51996;DHT22;38010;53.264;6.592;2023-05-14T14:19:08;22.20;99.90
51996;DHT22;38010;53.264;6.592;2023-05-14T14:21:34;21.90;99.90
51996;DHT22;38010;53.264;6.592;2023-05-14T14:24:00;21.60;99.90
51996;DHT22;38010;53.264;6.592;2023-05-14T14:26:26;21.40;99.90
51996;DHT22;38010;53.264;6.592;2023-05-14T14:28:53;21.20;99.90
51996;DHT22;38010;53.264;6.592;2023-05-14T14:31:19;20.90;99.90
51996;DHT22;38010;53.264;6.592;2023-05-14T14:33:46;20.70;99.90
51996;DHT22;38010;53.264;6.592;2023-05-14T14:36:12;20.60;99.90
51996;DHT22;38010;53.264;6.592;2023-05-14T14:38:37;20.40;99.90
51996;DHT22;38010;53.264;6.592;2023-05-14T14:41:04;20.30;99.90
51996;DHT22;38010;53.264;6.592;2023-05-14T14:43:33;20.20;99.90
51996;DHT22;38010;53.264;6.592;2023-05-14T14:45:59;20.10;99.90
51996;DHT22;38010;53.264;6.592;2023-05-14T14:50:51;20.00;99.90
51996;DHT22;38010;53.264;6.592;2023-05-14T14:53:18;19.90;99.90
51996;DHT22;38010;53.264;6.592;2023-05-14T14:55:44;19.80;99.90
51996;DHT22;38010;53.264;6.592;2023-05-14T14:58:09;19.70;99.90
51996;DHT22;38010;53.264;6.592;2023-05-14T15:00:35;19.70;99.90
51996;DHT22;38010;53.264;6.592;2023-05-14T15:03:01;19.70;99.90
51996;DHT22;38010;53.264;6.592;2023-05-14T15:05:27;19.60;99.90
51996;DHT22;38010;53.264;6.592;2023-05-14T15:07:53;19.60;99.90
51996;DHT22;38010;53.264;6.592;2023-05-14T15:10:18;19.60;99.90
51996;DHT22;38010;53.264;6.592;2023-05-14T15:12:44;19.60;99.90
51996;DHT22;38010;53.264;6.592;2023-05-14T15:15:10;19.60;99.90
51996;DHT22;38010;53.264;6.592;2023-05-14T15:17:36;19.50;99.90
51996;DHT22;38010;53.264;6.592;2023-05-14T15:20:01;19.50;99.90
51996;DHT22;38010;53.264;6.592;2023-05-14T15:22:27;19.50;99.90
51996;DHT22;38010;53.264;6.592;2023-05-14T15:24:53;19.50;99.90
51996;DHT22;38010;53.264;6.592;2023-05-14T15:27:18;19.50;99.90
51996;DHT22;38010;53.264;6.592;2023-05-14T15:29:44;19.50;99.90
51996;DHT22;38010;53.264;6.592;2023-05-14T15:32:10;19.50;99.90
51996;DHT22;38010;53.264;6.592;2023-05-14T15:34:36;19.50;99.90
51996;DHT22;38010;53.264;6.592;2023-05-14T15:37:02;19.50;99.90
51996;DHT22;38010;53.264;6.592;2023-05-14T15:39:27;19.40;99.90
51996;DHT22;38010;53.264;6.592;2023-05-14T15:41:54;19.40;99.90
51996;DHT22;38010;53.264;6.592;2023-05-14T15:44:19;19.50;99.90